sensor_id;sensor_type;location;lat;lon;timestamp;P1;durP1;ratioP1;P2;durP2;ratioP2
8500;SDS011;4288;48.484;10.024;2024-02-23T15:15:21;11.17;;;3.10;;
8500;SDS011;4288;48.484;10.024;2024-02-23T15:17:49;6.93;;;1.80;;
8500;SDS011;4288;48.484;10.024;2024-02-23T15:20:17;11.70;;;2.40;;
8500;SDS011;4288;48.484;10.024;2024-02-23T15:26:45;5.07;;;1.67;;
8500;SDS011;4288;48.484;10.024;2024-02-23T15:29:13;5.87;;;1.80;;
8500;SDS011;4288;48.484;10.024;2024-02-23T15:31:40;4.50;;;1.67;;
8500;SDS011;4288;48.484;10.024;2024-02-23T15:34:08;5.27;;;2.20;;
8500;SDS011;4288;48.484;10.024;2024-02-23T15:36:35;3.53;;;1.30;;
8500;SDS011;4288;48.484;10.024;2024-02-23T15:39:03;8.50;;;2.73;;
8500;SDS011;4288;48.484;10.024;2024-02-23T15:41:31;3.77;;;1.40;;
8500;SDS011;4288;48.484;10.024;2024-02-23T15:44:00;4.50;;;2.10;;
8500;SDS011;4288;48.484;10.024;2024-02-23T15:46:28;23.50;;;2.00;;
8500;SDS011;4288;48.484;10.024;2024-02-23T15:48:56;3.60;;;1.30;;
8500;SDS011;4288;48.484;10.024;2024-02-23T15:51:23;6.47;;;1.57;;
8500;SDS011;4288;48.484;10.024;2024-02-23T15:53:51;5.33;;;1.60;;
8500;SDS011;4288;48.484;10.024;2024-02-23T15:56:19;11.63;;;1.63;;
8500;SDS011;4288;48.484;10.024;2024-02-23T15:58:47;6.47;;;1.30;;
8500;SDS011;4288;48.484;10.024;2024-02-23T16:01:15;8.27;;;1.67;;
8500;SDS011;4288;48.484;10.024;2024-02-23T16:03:43;7.33;;;1.53;;
8500;SDS011;4288;48.484;10.024;2024-02-23T16:06:10;7.90;;;2.50;;
8500;SDS011;4288;48.484;10.024;2024-02-23T16:08:38;4.70;;;1.67;;
8500;SDS011;4288;48.484;10.024;2024-02-23T16:11:08;3.80;;;1.40;;
8500;SDS011;4288;48.484;10.024;2024-02-23T16:13:36;6.30;;;2.30;;
8500;SDS011;4288;48.484;10.024;2024-02-23T16:16:04;5.47;;;1.30;;
8500;SDS011;4288;48.484;10.024;2024-02-23T16:18:34;3.93;;;2.03;;
8500;SDS011;4288;48.484;10.024;2024-02-23T16:21:01;4.07;;;1.70;;
8500;SDS011;4288;48.484;10.024;2024-02-23T16:23:29;8.47;;;2.33;;
8500;SDS011;4288;48.484;10.024;2024-02-23T16:25:57;7.87;;;1.90;;
8500;SDS011;4288;48.484;10.024;2024-02-23T16:28:24;2.10;;;1.17;;
8500;SDS011;4288;48.484;10.024;2024-02-23T16:30:52;9.67;;;1.53;;
8500;SDS011;4288;48.484;10.024;2024-02-23T16:33:19;5.33;;;2.83;;
8500;SDS011;4288;48.484;10.024;2024-02-23T16:35:48;5.93;;;1.37;;
8500;SDS011;4288;48.484;10.024;2024-02-23T16:38:15;1.43;;;1.10;;
8500;SDS011;4288;48.484;10.024;2024-02-23T16:40:43;2.20;;;1.17;;
8500;SDS011;4288;48.484;10.024;2024-02-23T16:43:10;4.70;;;1.27;;
8500;SDS011;4288;48.484;10.024;2024-02-23T16:45:38;4.63;;;2.03;;
8500;SDS011;4288;48.484;10.024;2024-02-23T16:48:05;4.97;;;1.37;;
8500;SDS011;4288;48.484;10.024;2024-02-23T16:50:35;15.03;;;1.70;;
8500;SDS011;4288;48.484;10.024;2024-02-23T16:53:04;9.43;;;3.57;;
8500;SDS011;4288;48.484;10.024;2024-02-23T16:55:32;4.20;;;2.00;;
8500;SDS011;4288;48.484;10.024;2024-02-23T16:57:59;6.37;;;1.73;;
8500;SDS011;4288;48.484;10.024;2024-02-23T17:00:27;6.90;;;1.80;;
8500;SDS011;4288;48.484;10.024;2024-02-23T17:02:55;6.80;;;2.20;;
8500;SDS011;4288;48.484;10.024;2024-02-23T17:05:25;10.03;;;1.90;;
8500;SDS011;4288;48.484;10.024;2024-02-23T17:07:53;9.93;;;2.30;;
8500;SDS011;4288;48.484;10.024;2024-02-23T17:10:22;13.10;;;4.27;;
8500;SDS011;4288;48.484;10.024;2024-02-23T17:12:49;12.77;;;4.60;;
8500;SDS011;4288;48.484;10.024;2024-02-23T17:15:18;18.30;;;5.50;;
8500;SDS011;4288;48.484;10.024;2024-02-23T17:17:45;13.30;;;4.47;;
8500;SDS011;4288;48.484;10.024;2024-02-23T17:20:13;12.97;;;4.17;;
8500;SDS011;4288;48.484;10.024;2024-02-23T17:22:41;12.10;;;5.53;;
8500;SDS011;4288;48.484;10.024;2024-02-23T17:25:10;31.90;;;10.37;;
8500;SDS011;4288;48.484;10.024;2024-02-23T17:27:38;28.47;;;9.37;;
8500;SDS011;4288;48.484;10.024;2024-02-23T17:30:06;34.00;;;7.50;;
8500;SDS011;4288;48.484;10.024;2024-02-23T17:32:34;30.43;;;8.80;;
8500;SDS011;4288;48.484;10.024;2024-02-23T17:35:02;32.27;;;8.10;;
8500;SDS011;4288;48.484;10.024;2024-02-23T17:39:59;16.27;;;6.73;;
8500;SDS011;4288;48.484;10.024;2024-02-23T17:42:27;15.60;;;5.60;;
8500;SDS011;4288;48.484;10.024;2024-02-23T17:44:56;16.77;;;5.77;;
8500;SDS011;4288;48.484;10.024;2024-02-23T17:47:23;19.53;;;6.30;;
8500;SDS011;4288;48.484;10.024;2024-02-23T17:49:50;17.90;;;6.00;;
8500;SDS011;4288;48.484;10.024;2024-02-23T17:52:18;11.73;;;4.67;;
8500;SDS011;4288;48.484;10.024;2024-02-23T17:54:45;10.80;;;5.03;;
8500;SDS011;4288;48.484;10.024;2024-02-23T17:57:12;13.63;;;5.33;;
8500;SDS011;4288;48.484;10.024;2024-02-23T17:59:40;14.60;;;4.50;;
8500;SDS011;4288;48.484;10.024;2024-02-23T18:02:08;13.70;;;5.40;;
8500;SDS011;4288;48.484;10.024;2024-02-23T18:04:36;18.63;;;5.97;;
8500;SDS011;4288;48.484;10.024;2024-02-23T18:07:04;16.87;;;5.57;;
8500;SDS011;4288;48.484;10.024;2024-02-23T18:09:32;9.63;;;4.57;;
8500;SDS011;4288;48.484;10.024;2024-02-23T18:11:59;22.40;;;5.13;;
8500;SDS011;4288;48.484;10.024;2024-02-23T18:14:26;13.20;;;4.80;;
8500;SDS011;4288;48.484;10.024;2024-02-23T18:16:54;9.17;;;4.37;;
8500;SDS011;4288;48.484;10.024;2024-02-23T18:19:23;13.63;;;4.37;;
8500;SDS011;4288;48.484;10.024;2024-02-23T18:21:50;17.57;;;5.93;;
8500;SDS011;4288;48.484;10.024;2024-02-23T18:24:17;16.97;;;4.87;;
8500;SDS011;4288;48.484;10.024;2024-02-23T18:26:45;13.00;;;4.93;;
8500;SDS011;4288;48.484;10.024;2024-02-23T18:29:14;13.40;;;4.37;;
8500;SDS011;4288;48.484;10.024;2024-02-23T18:31:41;13.30;;;5.03;;
8500;SDS011;4288;48.484;10.024;2024-02-23T18:34:09;14.33;;;4.73;;
8500;SDS011;4288;48.484;10.024;2024-02-23T18:36:38;8.23;;;4.40;;
8500;SDS011;4288;48.484;10.024;2024-02-23T18:39:05;12.80;;;4.60;;
8500;SDS011;4288;48.484;10.024;2024-02-23T18:41:34;12.10;;;4.93;;
8500;SDS011;4288;48.484;10.024;2024-02-23T18:44:02;11.90;;;4.20;;
8500;SDS011;4288;48.484;10.024;2024-02-23T18:46:30;13.40;;;3.77;;
8500;SDS011;4288;48.484;10.024;2024-02-23T18:48:58;10.87;;;4.43;;
8500;SDS011;4288;48.484;10.024;2024-02-23T18:51:25;10.33;;;4.43;;
8500;SDS011;4288;48.484;10.024;2024-02-23T18:53:55;15.87;;;4.77;;
8500;SDS011;4288;48.484;10.024;2024-02-23T18:56:22;8.07;;;4.67;;
8500;SDS011;4288;48.484;10.024;2024-02-23T18:58:50;14.60;;;4.60;;
8500;SDS011;4288;48.484;10.024;2024-02-23T19:01:17;9.60;;;3.97;;
8500;SDS011;4288;48.484;10.024;2024-02-23T19:03:45;9.73;;;3.60;;
8500;SDS011;4288;48.484;10.024;2024-02-23T19:06:12;16.10;;;4.90;;
8500;SDS011;4288;48.484;10.024;2024-02-23T19:08:40;8.93;;;4.03;;
8500;SDS011;4288;48.484;10.024;2024-02-23T19:11:08;7.80;;;4.07;;
8500;SDS011;4288;48.484;10.024;2024-02-23T19:13:36;8.37;;;4.67;;
8500;SDS011;4288;48.484;10.024;2024-02-23T19:16:04;12.17;;;4.80;;
8500;SDS011;4288;48.484;10.024;2024-02-23T19:18:37;9.93;;;3.30;;
8500;SDS011;4288;48.484;10.024;2024-02-23T19:21:05;9.53;;;4.43;;
8500;SDS011;4288;48.484;10.024;2024-02-23T19:23:33;8.73;;;4.40;;
8500;SDS011;4288;48.484;10.024;2024-02-23T19:26:00;15.73;;;4.47;;
8500;SDS011;4288;48.484;10.024;2024-02-23T19:28:29;7.23;;;4.40;;
8500;SDS011;4288;48.484;10.024;2024-02-23T19:30:57;12.43;;;4.10;;
8500;SDS011;4288;48.484;10.024;2024-02-23T19:33:24;12.07;;;4.10;;
8500;SDS011;4288;48.484;10.024;2024-02-23T19:35:52;11.43;;;3.63;;
8500;SDS011;4288;48.484;10.024;2024-02-23T19:38:20;8.70;;;3.63;;
8500;SDS011;4288;48.484;10.024;2024-02-23T19:40:47;9.50;;;3.90;;
8500;SDS011;4288;48.484;10.024;2024-02-23T19:43:14;8.93;;;3.47;;
8500;SDS011;4288;48.484;10.024;2024-02-23T19:45:43;14.07;;;4.27;;
8500;SDS011;4288;48.484;10.024;2024-02-23T19:48:10;10.83;;;3.67;;
8500;SDS011;4288;48.484;10.024;2024-02-23T19:50:38;8.80;;;3.47;;
8500;SDS011;4288;48.484;10.024;2024-02-23T19:53:05;7.90;;;4.17;;
8500;SDS011;4288;48.484;10.024;2024-02-23T19:55:33;7.17;;;3.27;;
8500;SDS011;4288;48.484;10.024;2024-02-23T19:58:00;9.13;;;4.00;;
8500;SDS011;4288;48.484;10.024;2024-02-23T20:00:27;4.80;;;3.00;;
8500;SDS011;4288;48.484;10.024;2024-02-23T20:02:56;5.57;;;3.00;;
8500;SDS011;4288;48.484;10.024;2024-02-23T20:05:24;6.80;;;3.83;;
8500;SDS011;4288;48.484;10.024;2024-02-23T20:07:51;7.63;;;3.17;;
8500;SDS011;4288;48.484;10.024;2024-02-23T20:10:19;8.00;;;3.93;;
8500;SDS011;4288;48.484;10.024;2024-02-23T20:12:47;7.43;;;3.87;;
8500;SDS011;4288;48.484;10.024;2024-02-23T20:15:15;7.70;;;2.70;;
8500;SDS011;4288;48.484;10.024;2024-02-23T20:17:42;7.13;;;3.50;;
8500;SDS011;4288;48.484;10.024;2024-02-23T20:20:12;6.47;;;3.50;;
8500;SDS011;4288;48.484;10.024;2024-02-23T20:22:42;4.97;;;2.80;;
8500;SDS011;4288;48.484;10.024;2024-02-23T20:25:09;6.83;;;3.73;;
8500;SDS011;4288;48.484;10.024;2024-02-23T20:27:36;7.63;;;3.63;;
8500;SDS011;4288;48.484;10.024;2024-02-23T20:30:06;11.87;;;3.90;;
8500;SDS011;4288;48.484;10.024;2024-02-23T20:32:34;13.60;;;3.73;;
8500;SDS011;4288;48.484;10.024;2024-02-23T20:35:02;6.57;;;3.37;;
8500;SDS011;4288;48.484;10.024;2024-02-23T20:37:33;12.10;;;4.20;;
8500;SDS011;4288;48.484;10.024;2024-02-23T20:40:00;10.77;;;4.40;;
8500;SDS011;4288;48.484;10.024;2024-02-23T20:42:28;5.33;;;3.13;;
8500;SDS011;4288;48.484;10.024;2024-02-23T20:44:55;7.83;;;3.30;;
8500;SDS011;4288;48.484;10.024;2024-02-23T20:47:23;11.10;;;4.40;;
8500;SDS011;4288;48.484;10.024;2024-02-23T20:49:50;6.93;;;3.30;;
8500;SDS011;4288;48.484;10.024;2024-02-23T20:52:18;6.33;;;3.20;;
8500;SDS011;4288;48.484;10.024;2024-02-23T20:54:47;7.03;;;3.33;;
8500;SDS011;4288;48.484;10.024;2024-02-23T20:57:14;8.50;;;3.83;;
8500;SDS011;4288;48.484;10.024;2024-02-23T20:59:42;4.00;;;2.60;;
8500;SDS011;4288;48.484;10.024;2024-02-23T21:02:10;5.03;;;3.13;;
8500;SDS011;4288;48.484;10.024;2024-02-23T21:04:43;6.90;;;3.17;;
8500;SDS011;4288;48.484;10.024;2024-02-23T21:07:11;9.70;;;4.00;;
8500;SDS011;4288;48.484;10.024;2024-02-23T21:09:40;11.50;;;2.90;;
8500;SDS011;4288;48.484;10.024;2024-02-23T21:12:08;7.90;;;3.87;;
8500;SDS011;4288;48.484;10.024;2024-02-23T21:14:36;9.00;;;3.10;;
8500;SDS011;4288;48.484;10.024;2024-02-23T21:17:04;6.60;;;4.10;;
8500;SDS011;4288;48.484;10.024;2024-02-23T21:19:31;5.67;;;3.00;;
8500;SDS011;4288;48.484;10.024;2024-02-23T21:21:58;5.57;;;2.50;;
8500;SDS011;4288;48.484;10.024;2024-02-23T21:24:27;5.30;;;3.30;;
8500;SDS011;4288;48.484;10.024;2024-02-23T21:26:55;4.90;;;3.30;;
8500;SDS011;4288;48.484;10.024;2024-02-23T21:29:24;5.57;;;2.80;;
8500;SDS011;4288;48.484;10.024;2024-02-23T21:31:51;9.30;;;3.60;;
8500;SDS011;4288;48.484;10.024;2024-02-23T21:34:18;9.37;;;2.90;;
8500;SDS011;4288;48.484;10.024;2024-02-23T21:36:46;6.93;;;2.80;;
8500;SDS011;4288;48.484;10.024;2024-02-23T21:39:13;5.80;;;3.10;;
8500;SDS011;4288;48.484;10.024;2024-02-23T21:41:40;4.70;;;3.00;;
8500;SDS011;4288;48.484;10.024;2024-02-23T21:44:08;3.90;;;2.63;;
8500;SDS011;4288;48.484;10.024;2024-02-23T21:46:36;4.83;;;3.03;;
8500;SDS011;4288;48.484;10.024;2024-02-23T21:49:04;6.80;;;3.43;;
